This is the latest recevied weather packets stored in our database for station/object DG0PX-12. If no packets are shown the sender has not sent any weather packets the latest 10 day(s).
| Time | Temp. | Humidity | Pressure | Rain* | Wind** | Luminosity | Snow |
|---|---|---|---|---|---|---|---|
| 1787733869 | 26.67° C | 54% | 951.3 hPa | - | - | - | - |
| 1787732969 | 27.22° C | 52% | 951.2 hPa | - | - | - | - |
| 1787732069 | 27.78° C | 49% | 951.2 hPa | - | - | - | - |
| 1787731169 | 26.11° C | 56% | 951 hPa | - | - | - | - |
| 1787730269 | 26.11° C | 52% | 951.1 hPa | - | - | - | - |
| 1787729368 | 27.22° C | 48% | 951 hPa | - | - | - | - |
| 1787728468 | 26.11° C | 53% | 950.6 hPa | - | - | - | - |
| 1787727568 | 25.56° C | 56% | 950.5 hPa | - | - | - | - |
| 1787726668 | 26.11° C | 54% | 950.6 hPa | - | - | - | - |
| 1787725768 | 25.56° C | 53% | 950.6 hPa | - | - | - | - |
| 1787724868 | 23.89° C | 57% | 950.5 hPa | - | - | - | - |
| 1787723968 | 23.89° C | 58% | 950.3 hPa | - | - | - | - |
| 1787723068 | 23.89° C | 58% | 950.3 hPa | - | - | - | - |
| 1787722168 | 23.89° C | 59% | 950.1 hPa | - | - | - | - |
| 1787721268 | 22.78° C | 63% | 950.2 hPa | - | - | - | - |
| 1787720368 | 21.67° C | 68% | 949.9 hPa | - | - | - | - |
| 1787719468 | 23.89° C | 58% | 950.1 hPa | - | - | - | - |
| 1787718568 | 22.22° C | 65% | 949.9 hPa | - | - | - | - |
| 1787717668 | 23.33° C | 58% | 949.9 hPa | - | - | - | - |
| 1787716768 | 22.78° C | 62% | 949.9 hPa | - | - | - | - |
| 1787715867 | 21.67° C | 65% | 949.6 hPa | - | - | - | - |
| 1787714967 | 22.22° C | 63% | 949.6 hPa | - | - | - | - |
| 1787714067 | 21.67° C | 65% | 949.6 hPa | - | - | - | - |
| 1787713167 | 23.89° C | 58% | 949.8 hPa | - | - | - | - |
| 1787712267 | 22.22° C | 62% | 949.6 hPa | - | - | - | - |
* Rain since midnight (hover to see other rain measurements)
** Current wind speed in m/s (hover to see current wind gust speed)